createdAt,value
2022-11-19T08:10:01.549Z,97.28
2022-11-19T08:11:01.497Z,97.28
2022-11-19T08:12:01.479Z,97.38
2022-11-19T08:13:01.474Z,97.33
2022-11-19T08:14:01.459Z,97.59
2022-11-19T08:15:01.476Z,97.69
2022-11-19T08:16:01.435Z,97.80
2022-11-19T08:17:01.443Z,97.38
2022-11-19T08:18:01.433Z,97.28
2022-11-19T08:19:01.408Z,97.59
2022-11-19T08:20:01.423Z,96.97
2022-11-19T08:21:01.411Z,96.55
2022-11-19T08:22:01.380Z,96.24
2022-11-19T08:23:01.375Z,96.66
2022-11-19T08:24:01.373Z,96.76
2022-11-19T08:25:01.363Z,96.03
2022-11-19T08:26:01.347Z,97.17
2022-11-19T08:27:01.318Z,96.45
2022-11-19T08:28:01.301Z,95.72
2022-11-19T08:29:01.392Z,96.14
2022-11-19T08:30:01.307Z,96.14
2022-11-19T08:31:01.289Z,95.83
2022-11-19T08:32:01.255Z,95.83
2022-11-19T08:33:01.248Z,95.51
2022-11-19T08:34:01.268Z,95.83
2022-11-19T08:35:01.250Z,95.93
2022-11-19T08:36:01.214Z,95.68
2022-11-19T08:37:01.205Z,95.68
2022-11-19T08:38:01.202Z,96.03
2022-11-19T08:39:01.194Z,95.93
2022-11-19T08:40:01.196Z,95.57
2022-11-19T08:41:01.179Z,95.41
2022-11-19T08:42:01.173Z,95.68
2022-11-19T08:43:01.155Z,95.89
2022-11-19T08:44:01.139Z,95.57
2022-11-19T08:45:01.136Z,94.54
2022-11-19T08:46:01.101Z,94.95
2022-11-19T08:47:01.100Z,94.64
2022-11-19T08:48:01.076Z,94.64
2022-11-19T08:49:01.084Z,95.06
2022-11-19T08:50:01.097Z,94.54
2022-11-19T08:51:01.047Z,95.06
2022-11-19T08:52:01.052Z,94.64
2022-11-19T08:53:01.041Z,95.37
2022-11-19T08:54:01.022Z,93.71
2022-11-19T08:55:01.018Z,93.60
2022-11-19T08:56:00.986Z,92.88
2022-11-19T08:57:00.999Z,93.71
2022-11-19T08:58:00.992Z,93.19
2022-11-19T08:59:03.014Z,93.25
2022-11-19T09:00:05.939Z,92.47
2022-11-19T09:01:02.014Z,92.88
2022-11-19T09:02:00.916Z,92.88
2022-11-19T09:03:00.912Z,93.40
2022-11-19T09:04:00.906Z,93.19
2022-11-19T09:05:00.917Z,93.56
2022-11-19T09:06:00.888Z,93.87
2022-11-19T09:07:00.983Z,93.66
2022-11-19T09:08:00.867Z,93.66
2022-11-19T09:09:00.842Z,93.77
2022-11-19T09:10:00.858Z,93.15
2022-11-19T09:11:00.833Z,93.56
2022-11-19T09:12:00.817Z,92.88
2022-11-19T09:13:00.811Z,92.84
2022-11-19T09:14:00.814Z,92.53
2022-11-19T09:15:00.805Z,92.36
2022-11-19T09:16:00.756Z,92.43
2022-11-19T09:17:00.750Z,92.43
2022-11-19T09:18:00.750Z,92.53
2022-11-19T09:19:00.740Z,92.43
2022-11-19T09:20:00.742Z,92.53
2022-11-19T09:21:00.719Z,92.88
2022-11-19T09:22:00.701Z,92.74
2022-11-19T09:23:00.686Z,91.22
2022-11-19T09:24:00.693Z,91.49
2022-11-19T09:25:00.680Z,91.53
2022-11-19T09:26:00.657Z,91.02
2022-11-19T09:27:02.405Z,91.64
2022-11-19T09:28:00.622Z,92.16
2022-11-19T09:29:00.661Z,91.33
2022-11-19T09:30:00.639Z,91.02
2022-11-19T09:31:00.621Z,92.26
2022-11-19T09:32:00.582Z,91.39
2022-11-19T09:33:00.587Z,91.91
2022-11-19T09:34:00.567Z,90.97
2022-11-19T09:35:00.564Z,91.80
2022-11-19T09:36:00.600Z,91.22
2022-11-19T09:37:00.527Z,91.39
2022-11-19T09:38:00.528Z,91.39
2022-11-19T09:39:00.504Z,91.70
2022-11-19T09:40:00.488Z,91.60
2022-11-19T09:41:00.508Z,90.35
2022-11-19T09:42:00.479Z,91.28
2022-11-19T09:43:00.461Z,91.91
2022-11-19T09:44:00.457Z,91.08
2022-11-19T09:45:00.435Z,91.08
2022-11-19T09:46:00.468Z,90.31
2022-11-19T09:47:00.428Z,90.77
2022-11-19T09:48:00.410Z,91.18
2022-11-19T09:49:00.410Z,91.49
2022-11-19T09:50:00.387Z,90.77
2022-11-19T09:51:00.382Z,90.56
2022-11-19T09:52:00.354Z,90.66
2022-11-19T09:53:00.343Z,90.66
2022-11-19T09:54:00.340Z,90.77
2022-11-19T09:55:00.327Z,91.18
2022-11-19T09:56:00.326Z,91.39
2022-11-19T09:57:04.204Z,90.45
2022-11-19T09:58:00.296Z,90.66
2022-11-19T09:59:00.288Z,91.60
2022-11-19T10:00:00.279Z,91.18
2022-11-19T10:01:00.271Z,90.77
2022-11-19T10:02:00.272Z,90.25
2022-11-19T10:03:00.278Z,90.66
2022-11-19T10:04:00.216Z,90.56
2022-11-19T10:05:00.221Z,90.14
2022-11-19T10:06:00.206Z,90.35
2022-11-19T10:07:00.300Z,90.25
2022-11-19T10:08:00.171Z,90.56
2022-11-19T10:09:00.175Z,90.97
2022-11-19T10:10:00.163Z,90.14
2022-11-19T10:11:00.164Z,90.66
2022-11-19T10:12:00.129Z,90.97
2022-11-19T10:13:00.131Z,90.56
2022-11-19T10:14:00.103Z,90.87
2022-11-19T10:15:00.100Z,91.39
2022-11-19T10:16:00.116Z,91.49
2022-11-19T10:17:00.082Z,90.45
2022-11-19T10:18:00.095Z,90.10
2022-11-19T10:19:00.115Z,90.31
2022-11-19T10:20:00.040Z,90.25
2022-11-19T10:21:00.053Z,90.72
2022-11-19T10:22:00.016Z,90.45
2022-11-19T10:23:00.006Z,90.25
2022-11-19T10:24:00.001Z,89.83
2022-11-19T10:24:59.996Z,90.20
2022-11-19T10:25:59.984Z,90.25
2022-11-19T10:27:04.331Z,90.31
2022-11-19T10:28:00.957Z,89.38
2022-11-19T10:28:59.934Z,89.83
2022-11-19T10:29:59.924Z,90.20
2022-11-19T10:30:59.929Z,89.94
2022-11-19T10:31:59.897Z,89.89
2022-11-19T10:32:59.909Z,90.00
2022-11-19T10:33:59.926Z,89.38
2022-11-19T10:34:59.869Z,89.48
2022-11-19T10:35:59.868Z,89.38
2022-11-19T10:36:59.861Z,89.89
2022-11-19T10:37:59.837Z,89.89
2022-11-19T10:38:59.841Z,90.31
2022-11-19T10:39:59.824Z,89.89
2022-11-19T10:40:59.813Z,89.58
2022-11-19T10:41:59.798Z,89.79
2022-11-19T10:42:59.786Z,89.69
2022-11-19T10:43:59.775Z,90.10
2022-11-19T10:44:59.774Z,90.20
2022-11-19T10:45:59.777Z,90.00
2022-11-19T10:46:59.734Z,90.31
2022-11-19T10:48:03.308Z,90.20
2022-11-19T10:49:00.723Z,89.58
2022-11-19T10:49:59.732Z,89.28
2022-11-19T10:50:59.712Z,89.65
2022-11-19T10:51:59.690Z,90.00
2022-11-19T10:52:59.666Z,89.58
2022-11-19T10:53:59.650Z,90.06
2022-11-19T10:54:59.656Z,90.06
2022-11-19T10:55:59.660Z,90.47
2022-11-19T10:56:59.632Z,89.96
2022-11-19T10:57:59.618Z,89.65
2022-11-19T10:58:59.617Z,89.96
2022-11-19T10:59:59.598Z,89.58
2022-11-19T11:00:59.646Z,89.17
2022-11-19T11:01:59.559Z,88.40
2022-11-19T11:02:59.579Z,89.13
2022-11-19T11:03:59.541Z,88.76
2022-11-19T11:04:59.550Z,88.34
2022-11-19T11:05:59.564Z,88.13
2022-11-19T11:06:59.603Z,88.24
2022-11-19T11:07:59.504Z,88.55
2022-11-19T11:08:59.500Z,88.45
2022-11-19T11:09:59.469Z,88.55
2022-11-19T11:10:59.563Z,88.24
2022-11-19T11:11:59.449Z,87.93
2022-11-19T11:12:59.465Z,87.82
2022-11-19T11:13:59.441Z,87.82
2022-11-19T11:14:59.439Z,87.76
2022-11-19T11:15:59.413Z,87.82
2022-11-19T11:16:59.426Z,88.13
2022-11-19T11:17:59.422Z,88.65
2022-11-19T11:18:59.368Z,88.34
2022-11-19T11:19:59.363Z,88.45
2022-11-19T11:20:59.371Z,87.82
2022-11-19T11:21:59.372Z,88.34
2022-11-19T11:22:59.340Z,88.03
2022-11-19T11:23:59.334Z,87.82
2022-11-19T11:25:04.110Z,87.93
2022-11-19T11:26:00.323Z,88.13
2022-11-19T11:26:59.282Z,88.76
2022-11-19T11:27:59.266Z,88.55
2022-11-19T11:28:59.282Z,87.88
2022-11-19T11:29:59.246Z,87.72
2022-11-19T11:30:59.249Z,87.99
2022-11-19T11:31:59.242Z,88.34
2022-11-19T11:32:59.213Z,88.13
2022-11-19T11:33:59.205Z,88.55
2022-11-19T11:35:03.483Z,87.72
2022-11-19T11:36:00.193Z,87.88
2022-11-19T11:36:59.193Z,87.99
2022-11-19T11:37:59.176Z,87.20
2022-11-19T11:38:59.158Z,86.89
2022-11-19T11:39:59.144Z,87.51
2022-11-19T11:41:20.678Z,87.78
2022-11-19T11:42:07.669Z,88.30
2022-11-19T11:43:00.100Z,89.34
2022-11-19T11:43:59.098Z,87.99
2022-11-19T11:44:59.695Z,87.82
2022-11-19T11:45:59.074Z,88.61
2022-11-19T11:46:59.075Z,87.78
2022-11-19T11:47:59.066Z,87.47
2022-11-19T11:49:04.811Z,88.46
2022-11-19T11:50:00.023Z,88.30
2022-11-19T11:50:59.010Z,87.78
2022-11-19T11:51:59.013Z,86.65
2022-11-19T11:52:59.001Z,87.78
2022-11-19T11:53:59.000Z,87.47
2022-11-19T11:54:58.972Z,87.88
2022-11-19T11:55:58.953Z,88.40
2022-11-19T11:56:58.939Z,88.30
2022-11-19T11:57:58.947Z,88.30
2022-11-19T11:58:58.937Z,88.36
2022-11-19T11:59:58.941Z,88.40
2022-11-19T12:00:58.906Z,88.82
2022-11-19T12:01:58.968Z,88.57
2022-11-19T12:02:58.871Z,88.46
2022-11-19T12:03:58.889Z,88.26
2022-11-19T12:04:58.847Z,88.26
2022-11-19T12:05:58.843Z,87.85
2022-11-19T12:06:58.869Z,88.46
2022-11-19T12:07:58.816Z,87.74
2022-11-19T12:08:58.831Z,87.74
2022-11-19T12:09:58.818Z,87.85
2022-11-19T12:10:58.815Z,87.33
2022-11-19T12:11:58.774Z,86.40
2022-11-19T12:12:58.756Z,86.40
2022-11-19T12:13:58.776Z,85.61
2022-11-19T12:14:58.748Z,86.85
2022-11-19T12:15:58.731Z,86.23
2022-11-19T12:16:58.724Z,86.40
2022-11-19T12:17:58.720Z,86.65
2022-11-19T12:18:58.705Z,86.71
2022-11-19T12:19:58.697Z,86.91
2022-11-19T12:20:58.679Z,85.57
2022-11-19T12:21:58.660Z,85.82
2022-11-19T12:22:58.646Z,86.50
2022-11-19T12:23:58.650Z,86.75
2022-11-19T12:24:58.694Z,86.50
2022-11-19T12:25:58.744Z,85.68
2022-11-19T12:26:58.606Z,85.99
2022-11-19T12:27:58.598Z,84.74
2022-11-19T12:28:58.576Z,85.82
2022-11-19T12:29:58.589Z,86.02
2022-11-19T12:30:58.605Z,85.68
2022-11-19T12:31:58.546Z,85.78
2022-11-19T12:32:58.537Z,85.40
2022-11-19T12:33:58.529Z,85.99
2022-11-19T12:34:58.549Z,86.13
2022-11-19T12:35:58.512Z,86.09
2022-11-19T12:36:58.491Z,85.57
2022-11-19T12:37:58.473Z,85.57
2022-11-19T12:38:58.475Z,85.88
2022-11-19T12:39:58.462Z,85.99
2022-11-19T12:40:58.452Z,86.19
2022-11-19T12:41:58.452Z,85.40
2022-11-19T12:42:58.417Z,84.95
2022-11-19T12:43:58.411Z,85.40
2022-11-19T12:44:58.394Z,85.68
2022-11-19T12:45:58.470Z,84.88
2022-11-19T12:46:58.370Z,84.58
2022-11-19T12:47:58.376Z,85.09
2022-11-19T12:48:58.356Z,85.40
2022-11-19T12:49:58.349Z,85.92
2022-11-19T12:50:58.347Z,86.19
2022-11-19T12:51:58.324Z,85.47
2022-11-19T12:52:58.305Z,85.61
2022-11-19T12:53:58.310Z,85.78
2022-11-19T12:54:58.288Z,85.88
2022-11-19T12:55:58.315Z,85.71
2022-11-19T12:56:58.260Z,85.88
2022-11-19T12:57:58.281Z,86.02
2022-11-19T12:58:58.247Z,85.36
2022-11-19T12:59:58.254Z,85.57
2022-11-19T13:00:58.315Z,85.99
2022-11-19T13:01:58.225Z,86.09
2022-11-19T13:02:58.199Z,86.65
2022-11-19T13:03:58.190Z,85.78
2022-11-19T13:04:58.175Z,86.19
2022-11-19T13:05:58.184Z,86.19
2022-11-19T13:06:58.193Z,85.78
2022-11-19T13:07:58.138Z,85.16
2022-11-19T13:08:58.123Z,85.57
2022-11-19T13:09:58.123Z,84.53
2022-11-19T13:10:58.110Z,84.16
2022-11-19T13:11:58.147Z,84.37
2022-11-19T13:12:58.100Z,84.84
2022-11-19T13:13:58.097Z,84.78
2022-11-19T13:14:58.075Z,84.88
2022-11-19T13:15:58.049Z,84.99
2022-11-19T13:16:58.044Z,85.57
2022-11-19T13:17:58.060Z,84.58
2022-11-19T13:18:58.018Z,84.43
2022-11-19T13:19:58.006Z,84.47
2022-11-19T13:20:57.996Z,84.43
2022-11-19T13:21:57.984Z,84.58
2022-11-19T13:22:58.084Z,84.37
2022-11-19T13:23:57.979Z,84.47
2022-11-19T13:24:57.946Z,84.68
2022-11-19T13:25:57.944Z,84.47
2022-11-19T13:26:57.921Z,84.88
2022-11-19T13:27:57.947Z,86.02
2022-11-19T13:28:57.908Z,84.37
2022-11-19T13:29:57.930Z,84.68
2022-11-19T13:30:57.884Z,84.99
2022-11-19T13:31:57.879Z,85.26
2022-11-19T13:32:57.872Z,84.88
2022-11-19T13:33:57.841Z,85.09
2022-11-19T13:34:57.848Z,84.74
2022-11-19T13:35:57.836Z,84.99
2022-11-19T13:36:57.817Z,84.33
2022-11-19T13:37:58.882Z,84.64
2022-11-19T13:38:57.784Z,85.05
2022-11-19T13:39:57.790Z,84.99
2022-11-19T13:40:57.766Z,84.84
2022-11-19T13:41:57.766Z,84.47
2022-11-19T13:43:24.857Z,84.64
2022-11-19T13:43:58.745Z,84.33
2022-11-19T13:44:57.718Z,84.47
2022-11-19T13:45:57.843Z,84.16
2022-11-19T13:46:57.701Z,85.26
2022-11-19T13:47:58.365Z,85.99
2022-11-19T13:48:57.710Z,86.13
2022-11-19T13:49:57.677Z,85.57
2022-11-19T13:50:57.661Z,85.26
2022-11-19T13:51:57.656Z,85.05
2022-11-19T13:52:57.626Z,84.95
2022-11-19T13:54:02.625Z,85.19
2022-11-19T13:54:58.603Z,84.74
2022-11-19T13:55:57.625Z,84.84
2022-11-19T13:56:57.598Z,85.19
2022-11-19T13:57:57.574Z,86.19
2022-11-19T13:58:57.571Z,85.26
2022-11-19T13:59:57.587Z,85.16
2022-11-19T14:00:57.581Z,84.84
2022-11-19T14:01:57.769Z,84.43
2022-11-19T14:02:57.521Z,84.84
2022-11-19T14:03:57.523Z,84.95
2022-11-19T14:04:57.493Z,84.43
2022-11-19T14:05:57.503Z,84.74
2022-11-19T14:06:57.526Z,84.74
2022-11-19T14:07:57.467Z,84.27
2022-11-19T14:08:57.467Z,84.58
2022-11-19T14:09:57.437Z,84.78
2022-11-19T14:10:57.430Z,84.37
2022-11-19T14:11:57.438Z,84.58
2022-11-19T14:12:57.408Z,84.47
2022-11-19T14:13:57.407Z,84.47
2022-11-19T14:14:57.381Z,84.47
2022-11-19T14:15:57.376Z,84.47
2022-11-19T14:16:57.367Z,84.88
2022-11-19T14:17:57.414Z,84.99
2022-11-19T14:18:57.343Z,85.92
2022-11-19T14:19:57.336Z,85.82
2022-11-19T14:20:57.321Z,85.61
2022-11-19T14:21:57.301Z,85.82
2022-11-19T14:22:57.294Z,85.92
2022-11-19T14:23:57.313Z,85.09
2022-11-19T14:24:57.297Z,84.47
2022-11-19T14:25:57.268Z,84.16
2022-11-19T14:26:57.243Z,84.43
2022-11-19T14:27:57.240Z,85.19
2022-11-19T14:28:57.228Z,84.27
2022-11-19T14:29:57.248Z,84.68
2022-11-19T14:30:57.199Z,85.71
2022-11-19T14:31:57.200Z,85.61
2022-11-19T14:32:57.182Z,85.71
2022-11-19T14:33:57.192Z,85.82
2022-11-19T14:34:57.166Z,85.19
2022-11-19T14:35:57.148Z,85.71
2022-11-19T14:36:57.129Z,85.30
2022-11-19T14:37:57.120Z,84.68
2022-11-19T14:38:57.116Z,84.37
2022-11-19T14:39:57.161Z,84.78
2022-11-19T14:40:57.082Z,84.88
2022-11-19T14:41:57.085Z,84.78
2022-11-19T14:42:57.071Z,84.58
2022-11-19T14:43:57.057Z,84.68
2022-11-19T14:44:57.242Z,84.47
2022-11-19T14:45:57.036Z,84.72
2022-11-19T14:46:57.024Z,84.47
2022-11-19T14:47:57.014Z,85.19
2022-11-19T14:48:57.044Z,85.30
2022-11-19T14:49:57.018Z,84.58
2022-11-19T14:50:56.977Z,84.78
2022-11-19T14:51:56.970Z,84.58
2022-11-19T14:52:56.952Z,84.37
2022-11-19T14:53:56.947Z,84.68
2022-11-19T14:54:56.956Z,84.78
2022-11-19T14:55:56.922Z,84.99
2022-11-19T14:56:56.909Z,85.92
2022-11-19T14:57:56.893Z,85.50
2022-11-19T14:58:56.879Z,85.92
2022-11-19T14:59:56.887Z,85.71
2022-11-19T15:00:56.865Z,85.30
2022-11-19T15:01:56.847Z,85.09
2022-11-19T15:02:56.832Z,84.88
2022-11-19T15:03:56.872Z,85.71
2022-11-19T15:04:56.836Z,86.13
2022-11-19T15:05:56.829Z,84.33
2022-11-19T15:06:56.832Z,84.58
2022-11-19T15:07:56.783Z,84.99
2022-11-19T15:08:56.767Z,85.92
2022-11-19T15:09:56.780Z,85.09
2022-11-19T15:10:56.753Z,84.58
2022-11-19T15:11:56.745Z,85.92
2022-11-19T15:12:56.733Z,85.82
2022-11-19T15:13:56.721Z,84.99
2022-11-19T15:14:56.738Z,84.82
2022-11-19T15:15:56.695Z,85.30
2022-11-19T15:16:56.681Z,85.71
2022-11-19T15:18:00.665Z,85.13
2022-11-19T15:18:57.670Z,84.16
